sensor_id;sensor_type;location;lat;lon;timestamp;P1;durP1;ratioP1;P2;durP2;ratioP2
41685;SDS011;27370;42.764;23.432;2022-07-23T00:02:23;11.65;;;6.60;;
41685;SDS011;27370;42.764;23.432;2022-07-23T00:04:49;13.85;;;7.18;;
41685;SDS011;27370;42.764;23.432;2022-07-23T00:07:14;11.68;;;6.43;;
41685;SDS011;27370;42.764;23.432;2022-07-23T00:09:40;14.20;;;6.55;;
41685;SDS011;27370;42.764;23.432;2022-07-23T00:12:05;13.65;;;7.65;;
41685;SDS011;27370;42.764;23.432;2022-07-23T00:14:31;12.98;;;7.57;;
41685;SDS011;27370;42.764;23.432;2022-07-23T00:16:56;13.07;;;7.05;;
41685;SDS011;27370;42.764;23.432;2022-07-23T00:19:22;13.65;;;7.82;;
41685;SDS011;27370;42.764;23.432;2022-07-23T00:21:47;14.85;;;7.43;;
41685;SDS011;27370;42.764;23.432;2022-07-23T00:24:13;15.10;;;7.35;;
41685;SDS011;27370;42.764;23.432;2022-07-23T00:26:38;16.17;;;7.72;;
41685;SDS011;27370;42.764;23.432;2022-07-23T00:29:04;12.55;;;7.05;;
41685;SDS011;27370;42.764;23.432;2022-07-23T00:31:29;14.95;;;6.78;;
41685;SDS011;27370;42.764;23.432;2022-07-23T00:33:55;14.07;;;7.55;;
41685;SDS011;27370;42.764;23.432;2022-07-23T00:36:26;12.75;;;6.55;;
41685;SDS011;27370;42.764;23.432;2022-07-23T00:38:52;12.07;;;7.38;;
41685;SDS011;27370;42.764;23.432;2022-07-23T00:41:18;14.85;;;8.43;;
41685;SDS011;27370;42.764;23.432;2022-07-23T00:43:44;12.85;;;7.38;;
41685;SDS011;27370;42.764;23.432;2022-07-23T00:46:09;14.07;;;7.57;;
41685;SDS011;27370;42.764;23.432;2022-07-23T00:48:35;13.75;;;7.22;;
41685;SDS011;27370;42.764;23.432;2022-07-23T00:51:01;12.75;;;7.60;;
41685;SDS011;27370;42.764;23.432;2022-07-23T00:53:27;17.13;;;8.35;;
41685;SDS011;27370;42.764;23.432;2022-07-23T00:55:53;15.88;;;9.15;;
41685;SDS011;27370;42.764;23.432;2022-07-23T00:58:19;18.77;;;10.30;;
41685;SDS011;27370;42.764;23.432;2022-07-23T01:00:44;20.80;;;11.00;;
41685;SDS011;27370;42.764;23.432;2022-07-23T01:03:10;16.92;;;10.10;;
41685;SDS011;27370;42.764;23.432;2022-07-23T01:05:36;16.30;;;9.40;;
41685;SDS011;27370;42.764;23.432;2022-07-23T01:08:01;19.60;;;9.73;;
41685;SDS011;27370;42.764;23.432;2022-07-23T01:10:27;14.13;;;9.45;;
41685;SDS011;27370;42.764;23.432;2022-07-23T01:13:00;15.13;;;8.85;;
41685;SDS011;27370;42.764;23.432;2022-07-23T01:15:36;16.17;;;7.53;;
41685;SDS011;27370;42.764;23.432;2022-07-23T01:18:04;14.73;;;8.03;;
41685;SDS011;27370;42.764;23.432;2022-07-23T01:20:32;14.93;;;7.97;;
41685;SDS011;27370;42.764;23.432;2022-07-23T01:22:59;12.88;;;6.50;;
41685;SDS011;27370;42.764;23.432;2022-07-23T01:25:25;11.65;;;6.97;;
41685;SDS011;27370;42.764;23.432;2022-07-23T01:27:55;14.13;;;8.07;;
41685;SDS011;27370;42.764;23.432;2022-07-23T01:30:20;12.45;;;7.20;;
41685;SDS011;27370;42.764;23.432;2022-07-23T01:32:47;12.68;;;7.45;;
41685;SDS011;27370;42.764;23.432;2022-07-23T01:35:12;13.65;;;7.35;;
41685;SDS011;27370;42.764;23.432;2022-07-23T01:37:38;11.90;;;6.85;;
41685;SDS011;27370;42.764;23.432;2022-07-23T01:40:05;10.68;;;6.38;;
41685;SDS011;27370;42.764;23.432;2022-07-23T01:42:31;11.07;;;6.05;;
41685;SDS011;27370;42.764;23.432;2022-07-23T01:44:56;12.02;;;6.65;;
41685;SDS011;27370;42.764;23.432;2022-07-23T01:47:22;12.82;;;6.80;;
41685;SDS011;27370;42.764;23.432;2022-07-23T01:49:50;13.60;;;7.17;;
41685;SDS011;27370;42.764;23.432;2022-07-23T01:52:36;11.80;;;6.65;;
41685;SDS011;27370;42.764;23.432;2022-07-23T01:55:02;15.35;;;6.82;;
41685;SDS011;27370;42.764;23.432;2022-07-23T01:57:28;11.25;;;6.88;;
41685;SDS011;27370;42.764;23.432;2022-07-23T01:59:54;12.32;;;7.07;;
41685;SDS011;27370;42.764;23.432;2022-07-23T02:02:20;14.07;;;7.10;;
41685;SDS011;27370;42.764;23.432;2022-07-23T02:04:46;12.55;;;7.30;;
41685;SDS011;27370;42.764;23.432;2022-07-23T02:07:11;13.57;;;7.70;;
41685;SDS011;27370;42.764;23.432;2022-07-23T02:09:37;13.27;;;7.28;;
41685;SDS011;27370;42.764;23.432;2022-07-23T02:12:02;12.05;;;7.38;;
41685;SDS011;27370;42.764;23.432;2022-07-23T02:14:28;10.98;;;7.10;;
41685;SDS011;27370;42.764;23.432;2022-07-23T02:16:53;12.88;;;7.65;;
41685;SDS011;27370;42.764;23.432;2022-07-23T02:19:19;14.73;;;7.80;;
41685;SDS011;27370;42.764;23.432;2022-07-23T02:21:45;19.67;;;8.48;;
41685;SDS011;27370;42.764;23.432;2022-07-23T02:24:10;14.10;;;8.38;;
41685;SDS011;27370;42.764;23.432;2022-07-23T02:26:36;13.52;;;8.40;;
41685;SDS011;27370;42.764;23.432;2022-07-23T02:29:04;12.85;;;8.65;;
41685;SDS011;27370;42.764;23.432;2022-07-23T02:31:31;17.02;;;8.80;;
41685;SDS011;27370;42.764;23.432;2022-07-23T02:33:57;26.75;;;9.18;;
41685;SDS011;27370;42.764;23.432;2022-07-23T02:36:23;19.77;;;8.27;;
41685;SDS011;27370;42.764;23.432;2022-07-23T02:38:50;20.40;;;8.85;;
41685;SDS011;27370;42.764;23.432;2022-07-23T02:41:16;26.55;;;8.95;;
41685;SDS011;27370;42.764;23.432;2022-07-23T02:43:41;22.38;;;9.35;;
41685;SDS011;27370;42.764;23.432;2022-07-23T02:46:07;21.75;;;9.55;;
41685;SDS011;27370;42.764;23.432;2022-07-23T02:48:33;20.05;;;8.73;;
41685;SDS011;27370;42.764;23.432;2022-07-23T02:50:59;17.95;;;8.90;;
41685;SDS011;27370;42.764;23.432;2022-07-23T02:53:30;15.82;;;8.50;;
41685;SDS011;27370;42.764;23.432;2022-07-23T02:55:56;20.13;;;8.95;;
41685;SDS011;27370;42.764;23.432;2022-07-23T02:58:21;16.20;;;8.70;;
41685;SDS011;27370;42.764;23.432;2022-07-23T03:00:47;17.17;;;8.98;;
41685;SDS011;27370;42.764;23.432;2022-07-23T03:03:13;26.70;;;8.73;;
41685;SDS011;27370;42.764;23.432;2022-07-23T03:05:38;21.38;;;8.18;;
41685;SDS011;27370;42.764;23.432;2022-07-23T03:08:04;21.27;;;8.63;;
41685;SDS011;27370;42.764;23.432;2022-07-23T03:10:32;22.00;;;9.15;;
41685;SDS011;27370;42.764;23.432;2022-07-23T03:12:58;17.08;;;8.43;;
41685;SDS011;27370;42.764;23.432;2022-07-23T03:15:24;17.23;;;9.23;;
41685;SDS011;27370;42.764;23.432;2022-07-23T03:17:49;14.40;;;8.27;;
41685;SDS011;27370;42.764;23.432;2022-07-23T03:20:15;18.35;;;9.02;;
41685;SDS011;27370;42.764;23.432;2022-07-23T03:22:40;15.82;;;8.52;;
41685;SDS011;27370;42.764;23.432;2022-07-23T03:25:06;18.00;;;9.13;;
41685;SDS011;27370;42.764;23.432;2022-07-23T03:27:34;23.13;;;8.95;;
41685;SDS011;27370;42.764;23.432;2022-07-23T03:29:59;19.83;;;8.27;;
41685;SDS011;27370;42.764;23.432;2022-07-23T03:32:26;16.40;;;8.50;;
41685;SDS011;27370;42.764;23.432;2022-07-23T03:34:51;16.80;;;8.55;;
41685;SDS011;27370;42.764;23.432;2022-07-23T03:37:18;13.60;;;8.55;;
41685;SDS011;27370;42.764;23.432;2022-07-23T03:39:45;13.25;;;8.40;;
41685;SDS011;27370;42.764;23.432;2022-07-23T03:42:11;16.15;;;8.35;;
41685;SDS011;27370;42.764;23.432;2022-07-23T03:44:37;16.00;;;8.40;;
41685;SDS011;27370;42.764;23.432;2022-07-23T03:47:03;14.27;;;8.10;;
41685;SDS011;27370;42.764;23.432;2022-07-23T03:49:30;17.23;;;8.73;;
41685;SDS011;27370;42.764;23.432;2022-07-23T03:51:56;17.25;;;8.75;;
41685;SDS011;27370;42.764;23.432;2022-07-23T03:54:21;15.13;;;7.90;;
41685;SDS011;27370;42.764;23.432;2022-07-23T03:56:46;16.38;;;8.30;;
41685;SDS011;27370;42.764;23.432;2022-07-23T03:59:12;14.02;;;8.30;;
41685;SDS011;27370;42.764;23.432;2022-07-23T04:01:38;13.77;;;8.45;;
41685;SDS011;27370;42.764;23.432;2022-07-23T04:04:03;14.85;;;9.13;;
41685;SDS011;27370;42.764;23.432;2022-07-23T04:06:29;18.02;;;11.52;;
41685;SDS011;27370;42.764;23.432;2022-07-23T04:08:56;46.80;;;35.92;;
41685;SDS011;27370;42.764;23.432;2022-07-23T04:11:21;188.65;;;124.57;;
41685;SDS011;27370;42.764;23.432;2022-07-23T04:13:47;335.15;;;203.63;;
41685;SDS011;27370;42.764;23.432;2022-07-23T04:16:13;275.23;;;142.48;;
41685;SDS011;27370;42.764;23.432;2022-07-23T04:18:38;229.52;;;122.38;;
41685;SDS011;27370;42.764;23.432;2022-07-23T04:21:14;84.82;;;43.40;;
41685;SDS011;27370;42.764;23.432;2022-07-23T04:23:39;28.13;;;16.70;;
41685;SDS011;27370;42.764;23.432;2022-07-23T04:26:05;14.93;;;9.07;;
41685;SDS011;27370;42.764;23.432;2022-07-23T04:28:31;18.15;;;8.68;;
41685;SDS011;27370;42.764;23.432;2022-07-23T04:30:57;43.65;;;10.02;;
41685;SDS011;27370;42.764;23.432;2022-07-23T04:33:23;15.05;;;8.38;;
41685;SDS011;27370;42.764;23.432;2022-07-23T04:35:52;13.77;;;8.20;;
41685;SDS011;27370;42.764;23.432;2022-07-23T04:38:18;14.48;;;7.93;;
41685;SDS011;27370;42.764;23.432;2022-07-23T04:40:45;15.25;;;8.95;;
41685;SDS011;27370;42.764;23.432;2022-07-23T04:43:10;16.45;;;8.05;;
41685;SDS011;27370;42.764;23.432;2022-07-23T04:45:43;13.70;;;8.20;;
41685;SDS011;27370;42.764;23.432;2022-07-23T04:48:08;14.35;;;7.10;;
41685;SDS011;27370;42.764;23.432;2022-07-23T04:50:34;18.85;;;8.18;;
41685;SDS011;27370;42.764;23.432;2022-07-23T04:53:00;14.68;;;7.90;;
41685;SDS011;27370;42.764;23.432;2022-07-23T04:55:25;17.17;;;7.13;;
41685;SDS011;27370;42.764;23.432;2022-07-23T04:57:51;12.55;;;6.97;;
41685;SDS011;27370;42.764;23.432;2022-07-23T05:00:16;12.90;;;6.70;;
41685;SDS011;27370;42.764;23.432;2022-07-23T05:14:27;12.98;;;7.35;;
41685;SDS011;27370;42.764;23.432;2022-07-23T05:16:53;12.82;;;7.55;;
41685;SDS011;27370;42.764;23.432;2022-07-23T05:19:21;13.77;;;6.82;;
41685;SDS011;27370;42.764;23.432;2022-07-23T05:21:47;13.20;;;7.70;;
41685;SDS011;27370;42.764;23.432;2022-07-23T05:24:13;12.35;;;7.13;;
41685;SDS011;27370;42.764;23.432;2022-07-23T05:26:39;14.50;;;8.05;;
41685;SDS011;27370;42.764;23.432;2022-07-23T05:29:05;13.73;;;8.00;;
41685;SDS011;27370;42.764;23.432;2022-07-23T05:31:30;13.85;;;7.55;;
41685;SDS011;27370;42.764;23.432;2022-07-23T05:33:56;13.00;;;7.65;;
41685;SDS011;27370;42.764;23.432;2022-07-23T05:36:22;16.60;;;8.40;;
41685;SDS011;27370;42.764;23.432;2022-07-23T05:38:52;15.45;;;7.22;;
41685;SDS011;27370;42.764;23.432;2022-07-23T05:41:18;13.57;;;8.00;;
41685;SDS011;27370;42.764;23.432;2022-07-23T05:43:44;16.00;;;8.15;;
41685;SDS011;27370;42.764;23.432;2022-07-23T05:46:10;12.13;;;7.82;;
41685;SDS011;27370;42.764;23.432;2022-07-23T05:48:38;15.40;;;7.97;;
41685;SDS011;27370;42.764;23.432;2022-07-23T05:51:13;17.85;;;8.05;;
41685;SDS011;27370;42.764;23.432;2022-07-23T05:53:38;14.95;;;7.70;;
41685;SDS011;27370;42.764;23.432;2022-07-23T05:56:17;14.02;;;7.32;;
41685;SDS011;27370;42.764;23.432;2022-07-23T05:58:43;14.95;;;7.50;;
41685;SDS011;27370;42.764;23.432;2022-07-23T06:01:09;15.63;;;7.53;;
41685;SDS011;27370;42.764;23.432;2022-07-23T06:03:42;20.33;;;7.93;;
41685;SDS011;27370;42.764;23.432;2022-07-23T06:06:08;13.48;;;7.47;;
41685;SDS011;27370;42.764;23.432;2022-07-23T06:08:34;11.60;;;6.57;;
41685;SDS011;27370;42.764;23.432;2022-07-23T06:11:00;13.88;;;6.88;;
41685;SDS011;27370;42.764;23.432;2022-07-23T06:13:27;13.80;;;7.05;;
41685;SDS011;27370;42.764;23.432;2022-07-23T06:15:52;13.50;;;7.05;;
41685;SDS011;27370;42.764;23.432;2022-07-23T06:18:18;12.73;;;6.93;;
41685;SDS011;27370;42.764;23.432;2022-07-23T06:20:44;12.45;;;7.13;;
41685;SDS011;27370;42.764;23.432;2022-07-23T06:23:10;13.93;;;6.60;;
41685;SDS011;27370;42.764;23.432;2022-07-23T06:25:37;14.93;;;6.82;;
41685;SDS011;27370;42.764;23.432;2022-07-23T06:28:03;16.08;;;7.60;;
41685;SDS011;27370;42.764;23.432;2022-07-23T06:30:29;14.70;;;6.65;;
41685;SDS011;27370;42.764;23.432;2022-07-23T06:32:55;11.25;;;6.40;;
41685;SDS011;27370;42.764;23.432;2022-07-23T06:35:20;13.43;;;6.32;;
41685;SDS011;27370;42.764;23.432;2022-07-23T06:37:46;12.15;;;6.28;;
41685;SDS011;27370;42.764;23.432;2022-07-23T06:40:11;13.18;;;6.85;;
41685;SDS011;27370;42.764;23.432;2022-07-23T06:42:39;14.80;;;7.00;;
41685;SDS011;27370;42.764;23.432;2022-07-23T06:45:05;15.98;;;7.75;;
41685;SDS011;27370;42.764;23.432;2022-07-23T06:47:33;24.13;;;7.88;;
41685;SDS011;27370;42.764;23.432;2022-07-23T06:49:59;16.40;;;7.28;;
41685;SDS011;27370;42.764;23.432;2022-07-23T06:52:25;11.75;;;6.00;;
41685;SDS011;27370;42.764;23.432;2022-07-23T06:54:51;11.52;;;5.95;;
41685;SDS011;27370;42.764;23.432;2022-07-23T06:57:17;13.90;;;6.70;;
41685;SDS011;27370;42.764;23.432;2022-07-23T06:59:43;10.32;;;6.18;;
41685;SDS011;27370;42.764;23.432;2022-07-23T07:02:08;10.60;;;6.25;;
41685;SDS011;27370;42.764;23.432;2022-07-23T07:04:34;20.63;;;7.13;;
41685;SDS011;27370;42.764;23.432;2022-07-23T07:07:00;11.43;;;6.35;;
41685;SDS011;27370;42.764;23.432;2022-07-23T07:09:25;25.70;;;9.75;;
41685;SDS011;27370;42.764;23.432;2022-07-23T07:11:51;15.30;;;7.03;;
41685;SDS011;27370;42.764;23.432;2022-07-23T07:14:16;11.02;;;6.20;;
41685;SDS011;27370;42.764;23.432;2022-07-23T07:16:42;13.50;;;6.03;;
41685;SDS011;27370;42.764;23.432;2022-07-23T07:19:07;12.13;;;6.00;;
41685;SDS011;27370;42.764;23.432;2022-07-23T07:21:33;14.40;;;6.43;;
41685;SDS011;27370;42.764;23.432;2022-07-23T07:23:58;10.25;;;5.97;;
41685;SDS011;27370;42.764;23.432;2022-07-23T07:26:24;13.65;;;6.47;;
41685;SDS011;27370;42.764;23.432;2022-07-23T07:28:49;13.70;;;6.25;;
41685;SDS011;27370;42.764;23.432;2022-07-23T07:31:15;14.73;;;6.22;;
41685;SDS011;27370;42.764;23.432;2022-07-23T07:33:41;11.93;;;5.88;;
41685;SDS011;27370;42.764;23.432;2022-07-23T07:36:06;10.23;;;5.80;;
41685;SDS011;27370;42.764;23.432;2022-07-23T07:38:32;10.50;;;5.95;;
41685;SDS011;27370;42.764;23.432;2022-07-23T07:40:57;11.20;;;6.00;;
41685;SDS011;27370;42.764;23.432;2022-07-23T07:43:23;10.90;;;5.88;;
41685;SDS011;27370;42.764;23.432;2022-07-23T07:45:48;10.82;;;5.72;;
41685;SDS011;27370;42.764;23.432;2022-07-23T07:48:14;13.88;;;6.38;;
41685;SDS011;27370;42.764;23.432;2022-07-23T07:50:39;13.02;;;6.28;;
41685;SDS011;27370;42.764;23.432;2022-07-23T07:53:05;13.68;;;5.80;;
41685;SDS011;27370;42.764;23.432;2022-07-23T07:55:30;12.55;;;6.10;;
41685;SDS011;27370;42.764;23.432;2022-07-23T07:57:56;13.25;;;7.00;;
41685;SDS011;27370;42.764;23.432;2022-07-23T08:00:22;12.88;;;6.65;;
41685;SDS011;27370;42.764;23.432;2022-07-23T08:02:48;10.07;;;5.78;;
41685;SDS011;27370;42.764;23.432;2022-07-23T08:05:20;13.48;;;6.00;;
41685;SDS011;27370;42.764;23.432;2022-07-23T08:07:46;14.57;;;6.18;;
41685;SDS011;27370;42.764;23.432;2022-07-23T08:10:11;13.43;;;6.18;;
41685;SDS011;27370;42.764;23.432;2022-07-23T08:12:38;10.57;;;5.65;;
41685;SDS011;27370;42.764;23.432;2022-07-23T08:15:05;11.48;;;5.50;;
41685;SDS011;27370;42.764;23.432;2022-07-23T08:17:31;20.05;;;6.38;;
41685;SDS011;27370;42.764;23.432;2022-07-23T08:19:57;9.52;;;5.43;;
41685;SDS011;27370;42.764;23.432;2022-07-23T08:22:22;11.15;;;5.70;;
41685;SDS011;27370;42.764;23.432;2022-07-23T08:24:48;12.20;;;5.70;;
41685;SDS011;27370;42.764;23.432;2022-07-23T08:27:13;10.60;;;5.40;;
41685;SDS011;27370;42.764;23.432;2022-07-23T08:29:38;13.82;;;5.93;;
41685;SDS011;27370;42.764;23.432;2022-07-23T08:32:04;11.63;;;5.40;;
41685;SDS011;27370;42.764;23.432;2022-07-23T08:34:30;13.65;;;5.18;;
41685;SDS011;27370;42.764;23.432;2022-07-23T08:36:55;9.20;;;5.20;;
41685;SDS011;27370;42.764;23.432;2022-07-23T08:39:21;11.20;;;4.97;;
41685;SDS011;27370;42.764;23.432;2022-07-23T08:41:46;11.27;;;5.15;;
41685;SDS011;27370;42.764;23.432;2022-07-23T08:44:13;12.48;;;4.80;;
41685;SDS011;27370;42.764;23.432;2022-07-23T08:46:41;11.43;;;4.38;;
41685;SDS011;27370;42.764;23.432;2022-07-23T08:49:07;10.43;;;4.70;;
41685;SDS011;27370;42.764;23.432;2022-07-23T08:51:33;10.45;;;4.95;;
41685;SDS011;27370;42.764;23.432;2022-07-23T08:53:59;12.82;;;5.00;;
41685;SDS011;27370;42.764;23.432;2022-07-23T08:56:25;14.70;;;5.20;;
41685;SDS011;27370;42.764;23.432;2022-07-23T08:58:53;10.75;;;5.10;;
41685;SDS011;27370;42.764;23.432;2022-07-23T09:01:19;11.88;;;4.80;;
41685;SDS011;27370;42.764;23.432;2022-07-23T09:03:44;9.80;;;4.95;;
41685;SDS011;27370;42.764;23.432;2022-07-23T09:06:10;10.63;;;4.40;;
41685;SDS011;27370;42.764;23.432;2022-07-23T09:08:37;9.57;;;4.60;;
41685;SDS011;27370;42.764;23.432;2022-07-23T09:11:05;11.53;;;4.73;;
41685;SDS011;27370;42.764;23.432;2022-07-23T09:13:37;9.95;;;4.55;;
41685;SDS011;27370;42.764;23.432;2022-07-23T09:18:38;11.30;;;4.72;;
41685;SDS011;27370;42.764;23.432;2022-07-23T09:21:20;10.70;;;4.70;;
41685;SDS011;27370;42.764;23.432;2022-07-23T09:23:50;10.20;;;5.22;;
41685;SDS011;27370;42.764;23.432;2022-07-23T09:29:19;10.93;;;5.30;;
41685;SDS011;27370;42.764;23.432;2022-07-23T09:31:47;12.27;;;5.45;;
41685;SDS011;27370;42.764;23.432;2022-07-23T09:34:18;13.03;;;5.20;;
41685;SDS011;27370;42.764;23.432;2022-07-23T09:36:49;12.07;;;5.47;;
41685;SDS011;27370;42.764;23.432;2022-07-23T09:39:16;9.98;;;4.97;;
41685;SDS011;27370;42.764;23.432;2022-07-23T09:41:51;11.75;;;4.85;;
41685;SDS011;27370;42.764;23.432;2022-07-23T09:44:18;10.75;;;4.50;;
41685;SDS011;27370;42.764;23.432;2022-07-23T09:46:45;12.07;;;4.68;;
41685;SDS011;27370;42.764;23.432;2022-07-23T09:49:13;11.57;;;4.90;;
41685;SDS011;27370;42.764;23.432;2022-07-23T09:56:56;13.02;;;5.00;;
41685;SDS011;27370;42.764;23.432;2022-07-23T09:59:28;10.18;;;5.35;;
41685;SDS011;27370;42.764;23.432;2022-07-23T10:01:56;11.38;;;5.18;;
41685;SDS011;27370;42.764;23.432;2022-07-23T10:04:25;9.77;;;4.90;;
41685;SDS011;27370;42.764;23.432;2022-07-23T10:07:22;12.30;;;4.80;;
41685;SDS011;27370;42.764;23.432;2022-07-23T10:10:07;13.13;;;5.00;;
41685;SDS011;27370;42.764;23.432;2022-07-23T10:12:52;12.23;;;4.50;;
41685;SDS011;27370;42.764;23.432;2022-07-23T10:15:28;8.82;;;4.70;;
41685;SDS011;27370;42.764;23.432;2022-07-23T10:17:55;10.52;;;4.95;;
41685;SDS011;27370;42.764;23.432;2022-07-23T10:20:20;12.43;;;4.70;;
41685;SDS011;27370;42.764;23.432;2022-07-23T10:31:10;8.68;;;4.53;;
41685;SDS011;27370;42.764;23.432;2022-07-23T10:33:48;10.05;;;4.18;;
41685;SDS011;27370;42.764;23.432;2022-07-23T10:36:20;11.02;;;4.97;;
41685;SDS011;27370;42.764;23.432;2022-07-23T10:39:26;10.80;;;4.47;;
41685;SDS011;27370;42.764;23.432;2022-07-23T10:41:49;9.43;;;4.47;;
41685;SDS011;27370;42.764;23.432;2022-07-23T10:44:17;15.10;;;4.55;;
41685;SDS011;27370;42.764;23.432;2022-07-23T10:46:58;10.75;;;4.10;;
41685;SDS011;27370;42.764;23.432;2022-07-23T10:49:34;10.30;;;4.60;;
41685;SDS011;27370;42.764;23.432;2022-07-23T10:52:19;14.40;;;4.60;;
41685;SDS011;27370;42.764;23.432;2022-07-23T10:54:50;11.30;;;4.80;;
41685;SDS011;27370;42.764;23.432;2022-07-23T10:57:19;12.07;;;4.53;;
41685;SDS011;27370;42.764;23.432;2022-07-23T11:02:31;10.07;;;4.45;;
41685;SDS011;27370;42.764;23.432;2022-07-23T11:04:59;11.10;;;4.28;;
41685;SDS011;27370;42.764;23.432;2022-07-23T11:07:26;9.32;;;4.40;;
41685;SDS011;27370;42.764;23.432;2022-07-23T11:09:51;12.77;;;4.68;;
41685;SDS011;27370;42.764;23.432;2022-07-23T11:17:30;10.60;;;4.60;;
41685;SDS011;27370;42.764;23.432;2022-07-23T11:25:51;10.40;;;4.65;;
41685;SDS011;27370;42.764;23.432;2022-07-23T11:28:09;10.32;;;4.50;;
41685;SDS011;27370;42.764;23.432;2022-07-23T11:30:39;11.68;;;4.80;;
41685;SDS011;27370;42.764;23.432;2022-07-23T11:35:32;9.65;;;4.28;;
41685;SDS011;27370;42.764;23.432;2022-07-23T11:40:43;11.68;;;4.68;;
41685;SDS011;27370;42.764;23.432;2022-07-23T11:43:10;11.25;;;4.63;;
41685;SDS011;27370;42.764;23.432;2022-07-23T11:48:22;13.30;;;4.75;;
41685;SDS011;27370;42.764;23.432;2022-07-23T11:50:50;11.55;;;4.43;;
41685;SDS011;27370;42.764;23.432;2022-07-23T11:55:49;9.40;;;4.28;;
41685;SDS011;27370;42.764;23.432;2022-07-23T11:58:15;14.02;;;4.80;;
41685;SDS011;27370;42.764;23.432;2022-07-23T12:00:41;11.43;;;4.40;;
41685;SDS011;27370;42.764;23.432;2022-07-23T12:03:07;9.75;;;4.57;;
41685;SDS011;27370;42.764;23.432;2022-07-23T12:05:34;12.82;;;4.25;;
41685;SDS011;27370;42.764;23.432;2022-07-23T12:08:01;12.65;;;4.35;;
41685;SDS011;27370;42.764;23.432;2022-07-23T12:10:40;11.35;;;4.75;;
41685;SDS011;27370;42.764;23.432;2022-07-23T12:13:08;12.70;;;4.72;;
41685;SDS011;27370;42.764;23.432;2022-07-23T12:15:36;11.32;;;4.80;;
41685;SDS011;27370;42.764;23.432;2022-07-23T12:18:04;11.40;;;4.18;;
41685;SDS011;27370;42.764;23.432;2022-07-23T12:20:39;12.10;;;4.70;;
41685;SDS011;27370;42.764;23.432;2022-07-23T12:23:07;13.32;;;4.75;;
41685;SDS011;27370;42.764;23.432;2022-07-23T12:25:37;10.32;;;4.28;;
41685;SDS011;27370;42.764;23.432;2022-07-23T12:28:06;9.93;;;4.32;;
41685;SDS011;27370;42.764;23.432;2022-07-23T12:33:07;10.65;;;4.43;;
41685;SDS011;27370;42.764;23.432;2022-07-23T12:35:39;11.23;;;4.50;;
41685;SDS011;27370;42.764;23.432;2022-07-23T12:38:16;9.82;;;4.28;;
41685;SDS011;27370;42.764;23.432;2022-07-23T12:43:10;12.80;;;4.40;;
41685;SDS011;27370;42.764;23.432;2022-07-23T12:45:51;15.68;;;4.53;;
41685;SDS011;27370;42.764;23.432;2022-07-23T12:48:38;13.70;;;5.85;;
41685;SDS011;27370;42.764;23.432;2022-07-23T12:51:08;13.57;;;4.70;;
41685;SDS011;27370;42.764;23.432;2022-07-23T12:53:40;12.07;;;4.60;;
41685;SDS011;27370;42.764;23.432;2022-07-23T12:58:53;10.98;;;4.13;;
41685;SDS011;27370;42.764;23.432;2022-07-23T13:01:59;12.75;;;4.32;;
41685;SDS011;27370;42.764;23.432;2022-07-23T13:04:24;15.43;;;4.22;;
41685;SDS011;27370;42.764;23.432;2022-07-23T13:06:51;12.65;;;4.57;;
41685;SDS011;27370;42.764;23.432;2022-07-23T13:09:19;14.02;;;4.25;;
41685;SDS011;27370;42.764;23.432;2022-07-23T13:11:47;11.40;;;4.20;;
41685;SDS011;27370;42.764;23.432;2022-07-23T13:14:14;11.57;;;4.30;;
41685;SDS011;27370;42.764;23.432;2022-07-23T13:16:41;11.40;;;3.80;;
41685;SDS011;27370;42.764;23.432;2022-07-23T13:19:07;14.07;;;3.83;;
41685;SDS011;27370;42.764;23.432;2022-07-23T13:21:33;12.88;;;4.13;;
41685;SDS011;27370;42.764;23.432;2022-07-23T13:23:58;11.82;;;4.13;;
41685;SDS011;27370;42.764;23.432;2022-07-23T13:26:25;15.40;;;4.22;;
41685;SDS011;27370;42.764;23.432;2022-07-23T13:28:51;11.60;;;4.10;;
41685;SDS011;27370;42.764;23.432;2022-07-23T13:31:17;16.20;;;4.20;;
41685;SDS011;27370;42.764;23.432;2022-07-23T13:33:42;14.65;;;4.65;;
41685;SDS011;27370;42.764;23.432;2022-07-23T13:36:08;16.88;;;6.78;;
41685;SDS011;27370;42.764;23.432;2022-07-23T13:38:34;11.07;;;4.05;;
41685;SDS011;27370;42.764;23.432;2022-07-23T13:40:59;13.95;;;4.47;;
41685;SDS011;27370;42.764;23.432;2022-07-23T13:43:25;14.43;;;4.25;;
41685;SDS011;27370;42.764;23.432;2022-07-23T13:45:51;15.40;;;4.20;;
41685;SDS011;27370;42.764;23.432;2022-07-23T13:48:17;13.85;;;4.28;;
41685;SDS011;27370;42.764;23.432;2022-07-23T13:50:44;11.27;;;3.60;;
41685;SDS011;27370;42.764;23.432;2022-07-23T13:53:11;12.98;;;3.90;;
41685;SDS011;27370;42.764;23.432;2022-07-23T13:55:45;11.57;;;4.07;;
41685;SDS011;27370;42.764;23.432;2022-07-23T13:58:13;13.82;;;4.18;;
41685;SDS011;27370;42.764;23.432;2022-07-23T14:00:39;11.57;;;3.85;;
41685;SDS011;27370;42.764;23.432;2022-07-23T14:03:07;12.07;;;4.25;;
41685;SDS011;27370;42.764;23.432;2022-07-23T14:05:33;12.90;;;4.57;;
41685;SDS011;27370;42.764;23.432;2022-07-23T14:07:59;12.85;;;3.90;;
41685;SDS011;27370;42.764;23.432;2022-07-23T14:10:25;12.43;;;3.72;;
41685;SDS011;27370;42.764;23.432;2022-07-23T14:12:51;12.38;;;3.80;;
41685;SDS011;27370;42.764;23.432;2022-07-23T14:15:22;8.82;;;3.35;;
41685;SDS011;27370;42.764;23.432;2022-07-23T14:17:49;10.70;;;4.30;;
41685;SDS011;27370;42.764;23.432;2022-07-23T14:20:14;14.20;;;4.10;;
41685;SDS011;27370;42.764;23.432;2022-07-23T14:22:40;11.30;;;3.95;;
41685;SDS011;27370;42.764;23.432;2022-07-23T14:25:06;9.60;;;4.00;;
41685;SDS011;27370;42.764;23.432;2022-07-23T14:27:33;9.98;;;4.18;;
41685;SDS011;27370;42.764;23.432;2022-07-23T14:29:59;9.07;;;4.38;;
41685;SDS011;27370;42.764;23.432;2022-07-23T14:32:24;14.02;;;4.35;;
41685;SDS011;27370;42.764;23.432;2022-07-23T14:34:50;8.52;;;3.95;;
41685;SDS011;27370;42.764;23.432;2022-07-23T14:37:16;12.63;;;4.68;;
41685;SDS011;27370;42.764;23.432;2022-07-23T14:39:42;11.32;;;4.10;;
41685;SDS011;27370;42.764;23.432;2022-07-23T14:42:08;11.93;;;4.50;;
41685;SDS011;27370;42.764;23.432;2022-07-23T14:44:35;13.80;;;4.70;;
41685;SDS011;27370;42.764;23.432;2022-07-23T14:47:01;11.00;;;4.45;;
41685;SDS011;27370;42.764;23.432;2022-07-23T14:49:29;10.13;;;4.50;;
41685;SDS011;27370;42.764;23.432;2022-07-23T14:51:58;9.43;;;4.28;;
41685;SDS011;27370;42.764;23.432;2022-07-23T14:54:24;11.40;;;4.28;;
41685;SDS011;27370;42.764;23.432;2022-07-23T14:56:54;11.73;;;4.22;;
41685;SDS011;27370;42.764;23.432;2022-07-23T14:59:21;10.27;;;3.72;;
41685;SDS011;27370;42.764;23.432;2022-07-23T15:01:46;12.55;;;4.50;;
41685;SDS011;27370;42.764;23.432;2022-07-23T15:04:12;11.73;;;4.45;;
41685;SDS011;27370;42.764;23.432;2022-07-23T15:06:38;12.25;;;4.47;;
41685;SDS011;27370;42.764;23.432;2022-07-23T15:09:04;11.10;;;4.22;;
41685;SDS011;27370;42.764;23.432;2022-07-23T15:11:30;11.27;;;4.60;;
41685;SDS011;27370;42.764;23.432;2022-07-23T15:13:59;9.73;;;4.07;;
41685;SDS011;27370;42.764;23.432;2022-07-23T15:16:26;13.07;;;4.70;;
41685;SDS011;27370;42.764;23.432;2022-07-23T15:18:51;9.23;;;4.10;;
41685;SDS011;27370;42.764;23.432;2022-07-23T15:21:17;13.50;;;4.35;;
41685;SDS011;27370;42.764;23.432;2022-07-23T15:23:42;12.32;;;4.32;;
41685;SDS011;27370;42.764;23.432;2022-07-23T15:26:08;11.38;;;4.50;;